createdAt,value
2019-02-24T00:00:29.914Z,4.80
2019-02-24T00:02:59.879Z,4.70
2019-02-24T00:05:28.345Z,4.70
2019-02-24T00:07:56.803Z,4.70
2019-02-24T00:10:27.167Z,4.60
2019-02-24T00:12:57.169Z,4.60
2019-02-24T00:15:25.618Z,4.60
2019-02-24T00:17:54.079Z,4.60
2019-02-24T00:20:22.557Z,4.50
2019-02-24T00:22:51.083Z,4.50
2019-02-24T00:25:19.567Z,4.50
2019-02-24T00:27:48.283Z,4.40
2019-02-24T00:30:17.061Z,4.40
2019-02-24T00:32:48.693Z,4.40
2019-02-24T00:35:17.500Z,4.40
2019-02-24T00:37:46.283Z,4.40
2019-02-24T00:40:15.078Z,4.30
2019-02-24T00:42:43.608Z,4.30
2019-02-24T00:45:12.049Z,4.30
2019-02-24T00:47:40.514Z,4.30
2019-02-24T00:50:10.189Z,4.30
2019-02-24T00:52:38.652Z,4.30
2019-02-24T00:55:08.089Z,4.20
2019-02-24T00:57:38.480Z,4.20
2019-02-24T01:00:11.534Z,4.20
2019-02-24T01:02:40.280Z,4.10
2019-02-24T01:05:09.531Z,4.10
2019-02-24T01:07:39.609Z,4.10
2019-02-24T01:10:09.601Z,4.00
2019-02-24T01:12:38.328Z,4.00
2019-02-24T01:15:11.584Z,3.90
2019-02-24T01:17:42.376Z,3.90
2019-02-24T01:20:15.279Z,3.90
2019-02-24T01:22:43.722Z,3.90
2019-02-24T01:25:12.523Z,3.90
2019-02-24T01:27:41.051Z,3.90
2019-02-24T01:30:11.392Z,3.90
2019-02-24T01:32:40.272Z,3.90
2019-02-24T01:35:09.253Z,3.80
2019-02-24T01:37:37.703Z,3.80
2019-02-24T01:40:08.025Z,3.80
2019-02-24T01:42:36.826Z,3.80
2019-02-24T01:45:07.342Z,3.80
2019-02-24T01:47:36.156Z,3.80
2019-02-24T01:50:07.834Z,3.70
2019-02-24T01:52:36.385Z,3.70
2019-02-24T01:55:05.076Z,3.70
2019-02-24T01:57:33.792Z,3.70
2019-02-24T02:00:02.415Z,3.70
2019-02-24T02:02:31.144Z,3.70
2019-02-24T02:05:01.468Z,3.60
2019-02-24T02:07:31.496Z,3.60
2019-02-24T02:10:00.287Z,3.60
2019-02-24T02:12:29.140Z,3.60
2019-02-24T02:14:57.925Z,3.50
2019-02-24T02:17:26.710Z,3.50
2019-02-24T02:19:55.168Z,3.50
2019-02-24T02:22:23.994Z,3.50
2019-02-24T02:24:52.722Z,3.50
2019-02-24T02:27:23.124Z,3.40
2019-02-24T02:29:52.919Z,3.40
2019-02-24T02:32:21.385Z,3.40
2019-02-24T02:34:49.896Z,3.40
2019-02-24T02:37:18.450Z,3.40
2019-02-24T02:39:47.199Z,3.40
2019-02-24T02:42:15.712Z,3.40
2019-02-24T02:44:44.452Z,3.40
2019-02-24T02:47:14.233Z,3.40
2019-02-24T02:49:42.992Z,3.30
2019-02-24T02:52:11.748Z,3.30
2019-02-24T02:54:40.485Z,3.30
2019-02-24T02:57:09.287Z,3.30
2019-02-24T02:59:38.075Z,3.20
2019-02-24T03:02:06.860Z,3.20
2019-02-24T03:04:35.613Z,3.20
2019-02-24T03:07:05.896Z,3.20
2019-02-24T03:09:34.422Z,3.20
2019-02-24T03:12:03.214Z,3.10
2019-02-24T03:14:31.989Z,3.10
2019-02-24T03:17:00.689Z,3.10
2019-02-24T03:19:29.414Z,3.10
2019-02-24T03:21:58.166Z,3.00
2019-02-24T03:24:26.609Z,3.00
2019-02-24T03:26:55.456Z,3.00
2019-02-24T03:29:23.969Z,3.00
2019-02-24T03:31:52.693Z,2.90
2019-02-24T03:34:21.506Z,3.00
2019-02-24T03:36:50.267Z,2.90
2019-02-24T03:39:19.064Z,2.90
2019-02-24T03:41:47.553Z,2.90
2019-02-24T03:44:16.001Z,2.90
2019-02-24T03:46:44.734Z,2.80
2019-02-24T03:49:13.519Z,2.80
2019-02-24T03:51:42.385Z,2.80
2019-02-24T03:54:12.442Z,2.70
2019-02-24T03:56:42.298Z,2.70
2019-02-24T03:59:15.018Z,2.70
2019-02-24T04:01:41.630Z,2.70
2019-02-24T04:04:10.175Z,2.70
2019-02-24T04:06:40.722Z,2.70
2019-02-24T04:09:09.847Z,2.70
2019-02-24T04:11:38.915Z,2.70
2019-02-24T04:14:10.376Z,2.70
2019-02-24T04:16:39.311Z,2.70
2019-02-24T04:19:07.781Z,2.70
2019-02-24T04:21:37.941Z,2.80
2019-02-24T04:24:06.986Z,2.70
2019-02-24T04:26:35.743Z,2.80
2019-02-24T04:29:04.272Z,2.80
2019-02-24T04:31:33.126Z,2.70
2019-02-24T04:34:01.587Z,2.70
2019-02-24T04:36:30.384Z,2.70
2019-02-24T04:39:04.807Z,2.70
2019-02-24T04:41:33.686Z,2.70
2019-02-24T04:44:02.527Z,2.70
2019-02-24T04:46:35.591Z,2.70
2019-02-24T04:49:04.041Z,2.70
2019-02-24T04:51:32.794Z,2.70
2019-02-24T04:54:01.297Z,2.70
2019-02-24T04:56:29.751Z,2.70
2019-02-24T04:58:58.205Z,2.70
2019-02-24T05:01:26.726Z,2.70
2019-02-24T05:03:55.175Z,2.60
2019-02-24T05:06:24.802Z,2.70
2019-02-24T05:08:53.606Z,2.70
2019-02-24T05:11:22.401Z,2.60
2019-02-24T05:13:51.204Z,2.50
2019-02-24T05:16:19.969Z,2.50
2019-02-24T05:18:48.421Z,2.50
2019-02-24T05:21:17.135Z,2.50
2019-02-24T05:23:47.453Z,2.50
2019-02-24T05:26:15.935Z,2.50
2019-02-24T05:28:44.438Z,2.50
2019-02-24T05:31:14.694Z,2.50
2019-02-24T05:33:43.218Z,2.50
2019-02-24T05:36:12.015Z,2.50
2019-02-24T05:38:40.759Z,2.50
2019-02-24T05:41:09.214Z,2.50
2019-02-24T05:43:37.655Z,2.50
2019-02-24T05:46:06.119Z,2.40
2019-02-24T05:48:34.914Z,2.30
2019-02-24T05:51:03.741Z,2.30
2019-02-24T05:53:32.309Z,2.20
2019-02-24T05:56:01.095Z,2.20
2019-02-24T05:58:32.398Z,2.20
2019-02-24T06:01:02.106Z,2.20
2019-02-24T06:03:31.458Z,2.30
2019-02-24T06:06:01.900Z,2.20
2019-02-24T06:08:30.715Z,2.20
2019-02-24T06:10:59.446Z,2.20
2019-02-24T06:13:28.188Z,2.20
2019-02-24T06:15:58.632Z,2.10
2019-02-24T06:18:28.032Z,2.10
2019-02-24T06:20:56.758Z,2.00
2019-02-24T06:23:25.240Z,2.00
2019-02-24T06:25:53.920Z,2.00
2019-02-24T06:28:22.392Z,2.00
2019-02-24T06:30:52.139Z,1.90
2019-02-24T06:33:20.591Z,1.90
2019-02-24T06:35:49.046Z,1.80
2019-02-24T06:38:17.834Z,1.70
2019-02-24T06:40:46.330Z,1.70
2019-02-24T06:43:16.392Z,1.70
2019-02-24T06:45:45.971Z,1.70
2019-02-24T06:48:14.756Z,1.70
2019-02-24T06:50:52.628Z,1.60
2019-02-24T06:53:21.073Z,1.60
2019-02-24T06:55:49.871Z,1.50
2019-02-24T06:58:18.568Z,1.50
2019-02-24T07:00:47.076Z,1.50
2019-02-24T07:03:15.848Z,1.40
2019-02-24T07:05:46.155Z,1.40
2019-02-24T07:08:16.528Z,1.40
2019-02-24T07:10:45.265Z,1.40
2019-02-24T07:13:13.736Z,1.50
2019-02-24T07:15:42.213Z,1.50
2019-02-24T07:18:10.662Z,1.60
2019-02-24T07:20:39.140Z,1.80
2019-02-24T07:23:07.922Z,2.70
2019-02-24T07:25:36.424Z,4.00
2019-02-24T07:28:05.247Z,5.30
2019-02-24T07:30:33.692Z,6.60
2019-02-24T07:33:02.376Z,7.90
2019-02-24T07:35:31.868Z,8.90
2019-02-24T07:38:00.652Z,9.70
2019-02-24T07:40:33.450Z,10.10
2019-02-24T07:43:02.172Z,10.30
2019-02-24T07:45:30.624Z,10.00
2019-02-24T07:47:59.386Z,9.50
2019-02-24T07:50:28.150Z,9.10
2019-02-24T07:52:57.028Z,8.40
2019-02-24T07:55:26.690Z,7.80
2019-02-24T07:57:55.169Z,7.60
2019-02-24T08:00:31.719Z,7.50
2019-02-24T08:02:54.206Z,7.40
2019-02-24T08:05:26.732Z,7.40
2019-02-24T08:07:55.480Z,7.40
2019-02-24T08:10:23.941Z,7.40
2019-02-24T08:12:54.508Z,7.50
2019-02-24T08:15:23.052Z,7.50
2019-02-24T08:17:51.501Z,7.40
2019-02-24T08:20:20.354Z,7.50
2019-02-24T08:22:48.794Z,7.60
2019-02-24T08:25:17.609Z,8.00
2019-02-24T08:27:47.557Z,8.40
2019-02-24T08:30:16.303Z,8.80
2019-02-24T08:32:45.073Z,9.10
2019-02-24T08:35:13.571Z,9.60
2019-02-24T08:37:42.021Z,10.50
2019-02-24T08:40:10.937Z,10.90
2019-02-24T08:42:39.721Z,11.40
2019-02-24T08:45:10.201Z,11.70
2019-02-24T08:47:38.648Z,11.90
2019-02-24T08:50:09.588Z,11.90
2019-02-24T08:52:38.023Z,11.80
2019-02-24T08:55:08.062Z,12.00
2019-02-24T08:57:36.613Z,12.30
2019-02-24T09:00:08.697Z,11.90
2019-02-24T09:02:37.152Z,12.10
2019-02-24T09:05:06.598Z,12.50
2019-02-24T09:07:35.049Z,13.00
2019-02-24T09:10:03.781Z,13.40
2019-02-24T09:12:32.655Z,13.50
2019-02-24T09:15:01.184Z,13.40
2019-02-24T09:17:29.648Z,13.50
2019-02-24T09:19:58.522Z,13.40
2019-02-24T09:22:27.054Z,13.60
2019-02-24T09:24:56.595Z,14.10
2019-02-24T09:27:25.374Z,14.20
2019-02-24T09:29:53.823Z,14.60
2019-02-24T09:32:23.375Z,15.00
2019-02-24T09:34:52.123Z,14.60
2019-02-24T09:37:20.947Z,15.10
2019-02-24T09:39:49.716Z,15.60
2019-02-24T09:42:19.773Z,15.90
2019-02-24T09:44:49.737Z,15.80
2019-02-24T09:47:19.963Z,15.80
2019-02-24T09:49:48.697Z,15.40
2019-02-24T09:52:17.161Z,15.30
2019-02-24T09:54:45.627Z,15.30
2019-02-24T09:57:14.525Z,15.30
2019-02-24T09:59:43.053Z,15.50
2019-02-24T10:02:13.074Z,15.90
2019-02-24T10:04:41.537Z,15.90
2019-02-24T10:07:10.376Z,16.00
2019-02-24T10:09:38.857Z,15.70
2019-02-24T10:12:07.317Z,16.30
2019-02-24T10:14:36.011Z,17.30
2019-02-24T10:17:04.592Z,18.20
2019-02-24T10:19:33.108Z,18.00
2019-02-24T10:22:01.893Z,17.00
2019-02-24T10:24:31.711Z,16.60
2019-02-24T10:27:00.649Z,16.70
2019-02-24T10:29:30.744Z,17.10
2019-02-24T10:32:00.905Z,17.50
2019-02-24T10:34:29.435Z,18.10
2019-02-24T10:36:57.976Z,18.10
2019-02-24T10:39:29.626Z,18.30
2019-02-24T10:41:56.838Z,18.90
2019-02-24T10:44:28.157Z,19.20
2019-02-24T10:46:58.525Z,19.30
2019-02-24T10:49:26.977Z,19.00
2019-02-24T10:51:55.657Z,18.50
2019-02-24T10:54:24.103Z,18.30
2019-02-24T10:56:53.069Z,17.90
2019-02-24T10:59:25.008Z,17.70
2019-02-24T11:01:53.718Z,18.00
2019-02-24T11:04:22.534Z,18.20
2019-02-24T11:06:51.634Z,18.40
2019-02-24T11:09:21.578Z,19.10
2019-02-24T11:11:50.418Z,19.70
2019-02-24T11:14:19.233Z,20.00
2019-02-24T11:16:48.111Z,20.30
2019-02-24T11:19:16.584Z,20.70
2019-02-24T11:21:45.310Z,21.10
2019-02-24T11:24:13.895Z,21.30
2019-02-24T11:26:42.440Z,21.20
2019-02-24T11:29:11.007Z,21.40
2019-02-24T11:31:39.803Z,21.80
2019-02-24T11:34:08.244Z,22.10
2019-02-24T11:36:36.783Z,22.40
2019-02-24T11:39:06.250Z,22.50
2019-02-24T11:41:35.038Z,22.50
2019-02-24T11:44:06.200Z,22.40
2019-02-24T11:46:36.542Z,22.70
2019-02-24T11:49:05.038Z,22.80
2019-02-24T11:51:34.212Z,23.10
2019-02-24T11:54:04.268Z,23.50
2019-02-24T11:56:32.852Z,24.10
2019-02-24T11:59:01.364Z,24.90
2019-02-24T12:01:30.138Z,25.40
2019-02-24T12:04:01.719Z,26.00
2019-02-24T12:06:30.166Z,26.50
2019-02-24T12:09:05.079Z,27.00
2019-02-24T12:11:28.860Z,27.40
2019-02-24T12:13:57.449Z,27.80
2019-02-24T12:16:25.890Z,27.90
2019-02-24T12:18:54.515Z,28.20
2019-02-24T12:21:23.278Z,28.50
2019-02-24T12:23:51.926Z,28.70
2019-02-24T12:26:20.670Z,28.60
2019-02-24T12:28:49.116Z,28.80
2019-02-24T12:31:19.104Z,29.00
2019-02-24T12:33:47.566Z,29.50
2019-02-24T12:36:17.256Z,29.50
2019-02-24T12:38:46.160Z,29.70
2019-02-24T12:41:15.769Z,30.00
2019-02-24T12:43:44.634Z,30.50
2019-02-24T12:46:14.035Z,30.60
2019-02-24T12:48:45.196Z,30.40
2019-02-24T12:51:13.674Z,30.60
2019-02-24T12:53:42.134Z,30.60
2019-02-24T12:56:10.689Z,30.60
2019-02-24T12:58:45.019Z,30.40
2019-02-24T13:01:10.877Z,30.40
2019-02-24T13:03:39.646Z,30.30
2019-02-24T13:06:08.177Z,30.10
2019-02-24T13:08:37.000Z,30.10
2019-02-24T13:11:05.478Z,29.70
2019-02-24T13:13:34.133Z,29.80
2019-02-24T13:16:02.856Z,29.80
2019-02-24T13:18:31.849Z,29.60
2019-02-24T13:21:00.424Z,29.30
2019-02-24T13:23:29.015Z,29.10
2019-02-24T13:25:58.737Z,29.00
2019-02-24T13:28:27.391Z,29.00
2019-02-24T13:30:56.113Z,29.30
2019-02-24T13:33:27.173Z,29.30
2019-02-24T13:35:57.453Z,29.20
2019-02-24T13:38:26.934Z,29.40
2019-02-24T13:40:55.443Z,29.30
2019-02-24T13:43:25.755Z,29.30
2019-02-24T13:45:54.332Z,29.10
2019-02-24T13:48:22.882Z,29.00
2019-02-24T13:50:51.389Z,28.80
2019-02-24T13:53:20.175Z,28.50
2019-02-24T13:55:48.962Z,28.20
2019-02-24T13:58:17.421Z,28.20
2019-02-24T14:00:46.232Z,28.20
2019-02-24T14:03:14.767Z,27.90
2019-02-24T14:05:44.261Z,27.70
2019-02-24T14:08:13.017Z,27.70
2019-02-24T14:10:41.571Z,27.70
2019-02-24T14:13:10.012Z,27.80
2019-02-24T14:15:38.513Z,28.00
2019-02-24T14:18:07.329Z,28.10
2019-02-24T14:20:35.786Z,28.10
2019-02-24T14:23:04.242Z,27.70
2019-02-24T14:25:32.999Z,27.10
2019-02-24T14:28:01.509Z,26.50
2019-02-24T14:30:29.963Z,26.10
2019-02-24T14:32:58.705Z,25.90
2019-02-24T14:35:27.214Z,25.80
2019-02-24T14:37:56.026Z,25.70
2019-02-24T14:40:24.515Z,25.30
2019-02-24T14:42:52.965Z,24.50
2019-02-24T14:45:25.380Z,23.90
2019-02-24T14:47:53.905Z,23.70
2019-02-24T14:50:22.518Z,23.40
2019-02-24T14:52:51.898Z,23.00
2019-02-24T14:55:20.720Z,22.60
2019-02-24T14:57:49.570Z,22.20
2019-02-24T15:00:22.331Z,21.70
2019-02-24T15:02:50.598Z,21.40
2019-02-24T15:05:19.533Z,21.20
2019-02-24T15:07:48.295Z,20.90
2019-02-24T15:10:22.119Z,20.60
2019-02-24T15:12:51.918Z,20.30
2019-02-24T15:15:26.384Z,20.30
2019-02-24T15:17:53.099Z,20.40
2019-02-24T15:20:22.592Z,20.70
2019-02-24T15:22:52.157Z,21.00
2019-02-24T15:25:20.668Z,21.10
2019-02-24T15:27:51.505Z,21.00
2019-02-24T15:30:23.313Z,20.80
2019-02-24T15:32:52.168Z,20.70
2019-02-24T15:35:20.721Z,20.40
2019-02-24T15:37:49.276Z,20.40
2019-02-24T15:40:18.015Z,20.40
2019-02-24T15:42:46.881Z,20.30
2019-02-24T15:45:15.458Z,20.10
2019-02-24T15:47:44.262Z,19.80
2019-02-24T15:50:13.819Z,19.60
2019-02-24T15:52:43.158Z,19.30
2019-02-24T15:55:13.721Z,19.10
2019-02-24T15:57:42.584Z,18.70
2019-02-24T16:00:14.247Z,18.40
2019-02-24T16:02:43.628Z,18.20
2019-02-24T16:05:12.516Z,17.90
2019-02-24T16:07:41.046Z,17.70
2019-02-24T16:10:13.221Z,17.40
2019-02-24T16:12:43.278Z,17.30
2019-02-24T16:15:17.306Z,17.30
2019-02-24T16:17:45.750Z,17.20
2019-02-24T16:20:17.337Z,17.10
2019-02-24T16:22:45.895Z,17.00
2019-02-24T16:25:14.605Z,17.00
2019-02-24T16:27:43.156Z,16.90
2019-02-24T16:30:14.444Z,16.80
2019-02-24T16:32:44.756Z,16.70
2019-02-24T16:35:16.705Z,16.60
2019-02-24T16:37:46.601Z,16.40
2019-02-24T16:40:18.009Z,16.30
2019-02-24T16:42:50.894Z,16.20
2019-02-24T16:45:19.405Z,16.10
2019-02-24T16:47:47.843Z,16.00
2019-02-24T16:50:24.156Z,15.80
2019-02-24T16:52:53.151Z,15.70
2019-02-24T16:55:21.737Z,15.60
2019-02-24T16:57:50.291Z,15.40
2019-02-24T17:00:27.408Z,15.40
2019-02-24T17:02:57.677Z,15.30
2019-02-24T17:05:26.649Z,15.30
2019-02-24T17:07:55.114Z,15.20
2019-02-24T17:10:26.266Z,15.10
2019-02-24T17:12:54.735Z,15.00
2019-02-24T17:15:23.529Z,15.00
2019-02-24T17:17:52.128Z,14.90
2019-02-24T17:20:24.887Z,14.80
2019-02-24T17:22:53.352Z,14.80
2019-02-24T17:25:21.829Z,14.60
2019-02-24T17:27:51.829Z,14.50
2019-02-24T17:30:20.276Z,14.30
2019-02-24T17:32:49.042Z,14.10
2019-02-24T17:35:17.572Z,14.00
2019-02-24T17:37:46.131Z,14.10
2019-02-24T17:40:20.022Z,14.10
2019-02-24T17:42:48.545Z,14.00
2019-02-24T17:45:17.340Z,13.90
2019-02-24T17:47:46.242Z,13.80
2019-02-24T17:50:18.523Z,13.80
2019-02-24T17:52:47.064Z,13.80
2019-02-24T17:55:17.828Z,13.70
2019-02-24T17:57:48.283Z,13.50
2019-02-24T18:00:33.504Z,13.20
2019-02-24T18:03:01.993Z,13.00
2019-02-24T18:05:32.236Z,12.70
2019-02-24T18:08:00.782Z,12.50
2019-02-24T18:10:29.236Z,12.30
2019-02-24T18:12:59.352Z,12.20
2019-02-24T18:15:28.101Z,12.10
2019-02-24T18:17:56.986Z,12.10
2019-02-24T18:20:25.739Z,12.20
2019-02-24T18:22:54.252Z,12.20
2019-02-24T18:25:26.285Z,12.20
2019-02-24T18:27:54.585Z,12.20
2019-02-24T18:30:28.055Z,12.10
2019-02-24T18:32:56.564Z,11.90
2019-02-24T18:35:25.009Z,11.60
2019-02-24T18:37:53.565Z,11.50
2019-02-24T18:40:22.445Z,11.40
2019-02-24T18:42:59.334Z,11.50
2019-02-24T18:45:23.179Z,11.60
2019-02-24T18:47:51.893Z,11.60
2019-02-24T18:50:20.532Z,11.60
2019-02-24T18:52:50.513Z,11.60
2019-02-24T18:55:19.231Z,11.50
2019-02-24T18:57:49.613Z,11.50
2019-02-24T19:00:19.614Z,11.50
2019-02-24T19:02:48.131Z,11.50
2019-02-24T19:05:16.904Z,11.40
2019-02-24T19:07:45.868Z,11.30
2019-02-24T19:10:21.221Z,11.20
2019-02-24T19:12:51.601Z,11.10
2019-02-24T19:15:24.405Z,11.20
2019-02-24T19:17:52.857Z,11.30
2019-02-24T19:20:26.674Z,11.40
2019-02-24T19:22:55.190Z,11.40
2019-02-24T19:25:23.779Z,11.50
2019-02-24T19:27:52.244Z,11.50
2019-02-24T19:30:21.449Z,11.40
2019-02-24T19:32:51.424Z,11.40
2019-02-24T19:35:20.483Z,11.20
2019-02-24T19:37:49.260Z,11.20
2019-02-24T19:40:20.023Z,11.10
2019-02-24T19:42:48.566Z,11.00
2019-02-24T19:45:23.237Z,10.80
2019-02-24T19:47:51.786Z,10.80
2019-02-24T19:50:20.340Z,11.00
2019-02-24T19:52:48.797Z,11.00
2019-02-24T19:55:17.929Z,10.90
2019-02-24T19:57:47.279Z,10.80
2019-02-24T20:00:20.594Z,10.60
2019-02-24T20:02:49.250Z,10.40
2019-02-24T20:05:19.203Z,10.30
2019-02-24T20:07:48.109Z,10.30
2019-02-24T20:10:20.484Z,10.30
2019-02-24T20:12:50.301Z,10.40
2019-02-24T20:15:19.091Z,10.50
2019-02-24T20:17:47.637Z,10.50
2019-02-24T20:20:18.135Z,10.60
2019-02-24T20:22:48.381Z,10.60
2019-02-24T20:25:22.406Z,10.60
2019-02-24T20:27:51.201Z,10.60
2019-02-24T20:30:31.529Z,10.60
2019-02-24T20:33:00.313Z,10.50
2019-02-24T20:35:29.110Z,10.50
2019-02-24T20:37:58.022Z,10.40
2019-02-24T20:40:26.554Z,10.40
2019-02-24T20:42:56.962Z,10.40
2019-02-24T20:45:29.102Z,10.30
2019-02-24T20:47:57.776Z,10.30
2019-02-24T20:50:28.830Z,10.20
2019-02-24T20:52:57.680Z,10.00
2019-02-24T20:55:29.227Z,9.70
2019-02-24T20:58:01.373Z,9.50
2019-02-24T21:00:44.108Z,9.40
2019-02-24T21:03:14.100Z,9.30
2019-02-24T21:05:44.306Z,9.20
2019-02-24T21:08:21.144Z,9.20
2019-02-24T21:10:49.692Z,9.30
2019-02-24T21:13:20.024Z,9.30
2019-02-24T21:15:48.886Z,9.30
2019-02-24T21:18:19.917Z,9.40
2019-02-24T21:20:49.083Z,9.40
2019-02-24T21:23:17.955Z,9.30
2019-02-24T21:25:46.951Z,9.20
2019-02-24T21:28:15.556Z,9.00
2019-02-24T21:30:44.394Z,8.80
2019-02-24T21:33:12.878Z,8.60
2019-02-24T21:35:43.970Z,8.50
2019-02-24T21:38:12.753Z,8.40
2019-02-24T21:40:41.254Z,8.40
2019-02-24T21:43:09.796Z,8.40
2019-02-24T21:45:38.732Z,8.40
2019-02-24T21:48:07.570Z,8.40
2019-02-24T21:50:36.351Z,8.50
2019-02-24T21:53:05.109Z,8.50
2019-02-24T21:55:33.706Z,8.50
2019-02-24T21:58:04.348Z,8.50
2019-02-24T22:00:32.806Z,8.50
2019-02-24T22:03:01.425Z,8.50
2019-02-24T22:05:29.882Z,8.50
2019-02-24T22:07:58.474Z,8.60
2019-02-24T22:10:28.823Z,8.60
2019-02-24T22:12:59.493Z,8.70
2019-02-24T22:15:35.830Z,8.80
2019-02-24T22:18:05.774Z,8.90
2019-02-24T22:20:34.310Z,8.90
2019-02-24T22:23:03.172Z,8.90
2019-02-24T22:25:31.773Z,8.80
2019-02-24T22:28:00.578Z,8.60
2019-02-24T22:30:29.034Z,8.70
2019-02-24T22:32:59.542Z,8.60
2019-02-24T22:35:28.416Z,8.60
2019-02-24T22:37:56.873Z,8.60
2019-02-24T22:40:26.614Z,8.60
2019-02-24T22:42:56.933Z,8.50
2019-02-24T22:45:26.653Z,8.50
2019-02-24T22:47:56.023Z,8.60
2019-02-24T22:50:24.688Z,8.60
2019-02-24T22:52:53.547Z,8.60
2019-02-24T22:55:22.000Z,8.50
2019-02-24T22:57:50.656Z,8.40
2019-02-24T23:00:47.763Z,8.40
2019-02-24T23:03:16.649Z,8.40
2019-02-24T23:05:47.057Z,8.30
2019-02-24T23:08:16.153Z,8.20
2019-02-24T23:10:46.539Z,8.10
2019-02-24T23:13:14.988Z,8.00
2019-02-24T23:15:44.246Z,8.00
2019-02-24T23:18:12.768Z,7.90
2019-02-24T23:20:41.632Z,7.90
2019-02-24T23:23:10.108Z,7.90
2019-02-24T23:25:38.609Z,7.90
2019-02-24T23:28:07.124Z,8.00
2019-02-24T23:30:35.848Z,8.00
2019-02-24T23:33:04.792Z,7.80
2019-02-24T23:35:35.048Z,7.80
2019-02-24T23:38:04.178Z,7.80
2019-02-24T23:40:32.911Z,7.70
2019-02-24T23:43:01.365Z,7.70
2019-02-24T23:45:29.832Z,7.70
2019-02-24T23:48:01.256Z,7.60
2019-02-24T23:50:30.038Z,7.60
2019-02-24T23:52:58.616Z,7.50
2019-02-24T23:55:27.529Z,7.40
2019-02-24T23:57:56.552Z,7.40
